KECS/ECS METAR and TAF weather

Enter ICAO airport designator
Station Type Date Time Source
KECS METAR 2018/01/22 19:15 UTC NOAA

KECS 221915Z AUTO 30009KT 10SM CLR M01/M08 A2999 RMK AO2


Station Type Date Time Source
KECS Decoded METAR 2018/01/22 19:15 UTC NOAA

Station name not available
Jan 22, 2018 - 02:15 PM EST / 2018.01.22 1915 UTC
Wind: from the WNW (300 degrees) at 10 MPH (9 KT):0
Visibility: 10 mile(s):0
Sky conditions: clear
Temperature: 30 F (-1 C)
Windchill: 21 F (-6 C):1
Dew Point: 17 F (-8 C)
Relative Humidity: 58%
Pressure (altimeter): 29.99 in. Hg (1015 hPa)
ob: KECS 221915Z AUTO 30009KT 10SM CLR M01/M08 A2999 RMK AO2
cycle: 19

Station Type Date Time Source
KECS TAF UTC NOAA

Error!


Example: see airport list